createdAt,value
2022-08-02T00:00:59.308Z,17.57
2022-08-02T00:03:27.361Z,17.57
2022-08-02T00:05:56.877Z,17.56
2022-08-02T00:08:24.948Z,17.54
2022-08-02T00:10:53.040Z,17.55
2022-08-02T00:13:21.341Z,17.49
2022-08-02T00:15:49.627Z,17.46
2022-08-02T00:18:17.775Z,17.47
2022-08-02T00:20:45.861Z,17.44
2022-08-02T00:23:15.467Z,17.34
2022-08-02T00:25:54.750Z,17.34
2022-08-02T00:28:27.875Z,17.19
2022-08-02T00:30:56.961Z,17.18
2022-08-02T00:34:27.364Z,17.16
2022-08-02T00:36:13.163Z,17.14
2022-08-02T00:38:42.722Z,17.11
2022-08-02T00:41:16.419Z,17.08
2022-08-02T00:43:44.623Z,17.03
2022-08-02T00:46:12.870Z,17.01
2022-08-02T00:48:41.426Z,16.93
2022-08-02T00:51:11.730Z,16.87
2022-08-02T00:53:40.293Z,16.90
2022-08-02T00:56:09.958Z,16.93
2022-08-02T00:58:38.787Z,16.95
2022-08-02T01:01:06.914Z,16.81
2022-08-02T01:03:35.069Z,16.90
2022-08-02T01:06:18.219Z,16.83
2022-08-02T01:08:46.580Z,16.58
2022-08-02T01:11:16.104Z,16.65
2022-08-02T01:13:44.381Z,16.60
2022-08-02T01:16:16.330Z,16.57
2022-08-02T01:18:48.466Z,16.59
2022-08-02T01:21:25.855Z,16.63
2022-08-02T01:24:02.016Z,16.68
2022-08-02T01:26:40.963Z,16.77
2022-08-02T01:29:14.775Z,16.73
2022-08-02T01:31:46.244Z,16.52
2022-08-02T01:34:19.865Z,16.72
2022-08-02T01:36:53.202Z,16.62
2022-08-02T01:39:27.448Z,16.59
2022-08-02T01:42:01.395Z,16.50
2022-08-02T01:44:34.804Z,16.47
2022-08-02T01:47:06.196Z,16.50
2022-08-02T01:49:35.874Z,16.56
2022-08-02T01:52:23.453Z,16.66
2022-08-02T01:54:53.613Z,16.57
2022-08-02T01:57:22.990Z,16.86
2022-08-02T01:59:53.310Z,16.97
2022-08-02T02:02:22.180Z,17.02
2022-08-02T02:04:51.554Z,17.10
2022-08-02T02:07:21.662Z,17.11
2022-08-02T02:09:51.043Z,17.07
2022-08-02T02:12:20.870Z,17.06
2022-08-02T02:14:52.139Z,17.06
2022-08-02T02:18:10.826Z,17.00
2022-08-02T02:20:15.410Z,16.95
2022-08-02T02:22:43.614Z,16.97
2022-08-02T02:25:13.669Z,17.00
2022-08-02T02:27:47.758Z,17.06
2022-08-02T02:30:16.009Z,17.00
2022-08-02T02:32:45.824Z,17.07
2022-08-02T02:35:14.550Z,17.10
2022-08-02T02:37:44.814Z,16.93
2022-08-02T02:40:13.536Z,16.93
2022-08-02T02:42:43.089Z,16.90
2022-08-02T02:45:19.352Z,17.05
2022-08-02T02:47:49.719Z,17.04
2022-08-02T02:50:18.736Z,17.07
2022-08-02T02:52:47.488Z,16.89
2022-08-02T02:55:16.020Z,17.06
2022-08-02T02:58:03.390Z,16.99
2022-08-02T03:01:08.329Z,16.92
2022-08-02T03:03:56.763Z,16.89
2022-08-02T03:06:43.385Z,16.86
2022-08-02T03:09:20.833Z,16.91
2022-08-02T03:11:49.329Z,16.92
2022-08-02T03:14:18.087Z,16.98
2022-08-02T03:16:47.595Z,16.99
2022-08-02T03:19:17.551Z,17.04
2022-08-02T03:21:46.858Z,17.02
2022-08-02T03:24:15.270Z,17.12
2022-08-02T03:26:56.002Z,17.03
2022-08-02T03:29:24.206Z,17.09
2022-08-02T03:31:52.492Z,17.11
2022-08-02T03:34:22.138Z,17.06
2022-08-02T03:36:52.644Z,17.08
2022-08-02T03:39:21.496Z,17.01
2022-08-02T03:41:50.170Z,17.07
2022-08-02T03:44:18.578Z,17.07
2022-08-02T03:46:47.263Z,17.15
2022-08-02T03:49:16.760Z,17.11
2022-08-02T03:51:46.562Z,17.06
2022-08-02T03:54:15.307Z,17.06
2022-08-02T03:56:43.505Z,17.09
2022-08-02T03:59:12.884Z,17.09
2022-08-02T04:01:41.534Z,17.17
2022-08-02T04:04:10.805Z,17.23
2022-08-02T04:06:39.963Z,17.27
2022-08-02T04:09:11.274Z,17.27
2022-08-02T04:11:39.467Z,17.27
2022-08-02T04:14:09.900Z,17.24
2022-08-02T04:16:43.562Z,17.20
2022-08-02T04:19:14.921Z,17.12
2022-08-02T04:21:51.865Z,17.08
2022-08-02T04:24:25.173Z,17.19
2022-08-02T04:26:58.088Z,17.30
2022-08-02T04:29:35.521Z,17.37
2022-08-02T04:32:04.299Z,17.41
2022-08-02T04:34:32.704Z,17.38
2022-08-02T04:37:01.138Z,17.41
2022-08-02T04:39:30.686Z,17.41
2022-08-02T04:41:58.869Z,17.50
2022-08-02T04:44:27.369Z,17.42
2022-08-02T04:46:55.995Z,17.63
2022-08-02T04:49:24.188Z,17.69
2022-08-02T04:51:52.337Z,17.73
2022-08-02T04:54:20.575Z,17.77
2022-08-02T04:56:50.294Z,17.81
2022-08-02T04:59:18.533Z,17.77
2022-08-02T05:01:46.639Z,17.86
2022-08-02T05:04:14.790Z,17.88
2022-08-02T05:06:43.233Z,17.92
2022-08-02T05:09:11.404Z,17.87
2022-08-02T05:11:39.653Z,17.91
2022-08-02T05:14:09.205Z,17.89
2022-08-02T05:16:37.886Z,17.91
2022-08-02T05:19:06.094Z,17.86
2022-08-02T05:21:34.386Z,17.85
2022-08-02T05:24:02.562Z,17.67
2022-08-02T05:26:30.844Z,17.60
2022-08-02T05:28:59.374Z,17.78
2022-08-02T05:31:28.929Z,17.82
2022-08-02T05:33:57.038Z,17.86
2022-08-02T05:36:25.226Z,17.85
2022-08-02T05:39:04.724Z,17.91
2022-08-02T05:41:34.000Z,17.95
2022-08-02T05:44:02.089Z,17.97
2022-08-02T05:46:31.851Z,18.02
2022-08-02T05:49:00.158Z,18.09
2022-08-02T05:51:32.501Z,18.13
2022-08-02T05:54:06.658Z,18.23
2022-08-02T05:56:38.205Z,18.23
2022-08-02T05:59:11.402Z,18.34
2022-08-02T06:01:42.337Z,18.41
2022-08-02T06:04:12.891Z,18.39
2022-08-02T06:06:46.094Z,18.38
2022-08-02T06:09:21.020Z,18.20
2022-08-02T06:12:01.754Z,18.35
2022-08-02T06:14:32.979Z,18.44
2022-08-02T06:17:05.435Z,18.49
2022-08-02T06:19:51.001Z,18.40
2022-08-02T06:22:29.942Z,18.49
2022-08-02T06:25:06.308Z,18.49
2022-08-02T06:27:34.669Z,18.53
2022-08-02T06:30:03.472Z,18.40
2022-08-02T06:32:33.605Z,18.63
2022-08-02T06:35:01.985Z,18.69
2022-08-02T06:37:38.548Z,18.75
2022-08-02T06:40:13.649Z,18.98
2022-08-02T06:42:46.840Z,19.08
2022-08-02T06:45:15.387Z,19.05
2022-08-02T06:47:45.178Z,19.28
2022-08-02T06:50:13.821Z,19.32
2022-08-02T06:52:42.356Z,19.58
2022-08-02T06:55:11.290Z,19.75
2022-08-02T06:57:39.798Z,19.78
2022-08-02T07:00:09.937Z,19.83
2022-08-02T07:02:39.991Z,19.93
2022-08-02T07:05:11.395Z,19.98
2022-08-02T07:07:39.577Z,20.11
2022-08-02T07:10:08.507Z,20.07
2022-08-02T07:12:37.233Z,20.12
2022-08-02T07:15:07.949Z,20.15
2022-08-02T07:17:37.271Z,20.21
2022-08-02T07:20:07.235Z,20.23
2022-08-02T07:22:37.270Z,20.58
2022-08-02T07:25:06.827Z,20.73
2022-08-02T07:27:35.604Z,20.96
2022-08-02T07:30:03.996Z,21.07
2022-08-02T07:32:33.437Z,20.96
2022-08-02T07:35:06.600Z,20.94
2022-08-02T07:37:55.201Z,20.73
2022-08-02T07:40:27.394Z,20.58
2022-08-02T07:43:02.765Z,20.50
2022-08-02T07:45:35.857Z,20.32
2022-08-02T07:48:05.089Z,20.24
2022-08-02T07:50:33.239Z,20.04
2022-08-02T07:53:04.013Z,19.97
2022-08-02T07:55:40.110Z,19.89
2022-08-02T07:58:12.533Z,19.95
2022-08-02T08:00:40.977Z,20.11
2022-08-02T08:03:09.149Z,20.29
2022-08-02T08:05:37.434Z,20.78
2022-08-02T08:08:07.791Z,20.88
2022-08-02T08:10:36.530Z,21.13
2022-08-02T08:13:04.707Z,21.55
2022-08-02T08:15:32.881Z,21.91
2022-08-02T08:18:01.105Z,22.03
2022-08-02T08:20:29.321Z,22.34
2022-08-02T08:22:57.623Z,22.69
2022-08-02T08:25:27.364Z,22.88
2022-08-02T08:27:58.825Z,22.88
2022-08-02T08:30:27.255Z,23.12
2022-08-02T08:32:55.458Z,23.34
2022-08-02T08:35:23.664Z,23.63
2022-08-02T08:37:52.537Z,23.86
2022-08-02T08:40:21.044Z,23.81
2022-08-02T08:42:50.491Z,24.07
2022-08-02T08:45:19.152Z,24.14
2022-08-02T08:47:52.815Z,24.30
2022-08-02T08:50:25.774Z,23.98
2022-08-02T08:52:57.612Z,23.85
2022-08-02T08:55:27.850Z,23.81
2022-08-02T08:57:58.859Z,23.64
2022-08-02T09:00:30.454Z,23.52
2022-08-02T09:02:58.861Z,23.67
2022-08-02T09:05:27.362Z,23.66
2022-08-02T09:07:55.730Z,23.43
2022-08-02T09:10:34.301Z,23.47
2022-08-02T09:13:38.254Z,23.39
2022-08-02T09:16:11.579Z,23.73
2022-08-02T09:18:46.211Z,23.84
2022-08-02T09:21:17.299Z,23.72
2022-08-02T09:23:47.882Z,23.75
2022-08-02T09:26:17.524Z,23.88
2022-08-02T09:28:50.288Z,23.99
2022-08-02T09:31:19.853Z,24.15
2022-08-02T09:33:52.942Z,24.06
2022-08-02T09:36:22.024Z,24.00
2022-08-02T09:38:58.278Z,23.86
2022-08-02T09:41:28.124Z,24.25
2022-08-02T09:44:05.589Z,24.29
2022-08-02T09:46:39.666Z,24.64
2022-08-02T09:49:10.088Z,25.01
2022-08-02T09:51:40.754Z,25.43
2022-08-02T09:54:12.132Z,25.47
2022-08-02T09:56:45.386Z,25.20
2022-08-02T09:59:18.436Z,25.01
2022-08-02T10:01:51.245Z,24.81
2022-08-02T10:04:30.480Z,24.57
2022-08-02T10:06:59.600Z,24.56
2022-08-02T10:09:29.497Z,24.96
2022-08-02T10:11:58.454Z,25.26
2022-08-02T10:14:28.325Z,24.84
2022-08-02T10:16:58.352Z,25.19
2022-08-02T10:20:00.250Z,25.93
2022-08-02T10:22:17.016Z,26.36
2022-08-02T10:24:48.952Z,26.17
2022-08-02T10:27:19.971Z,26.21
2022-08-02T10:29:55.196Z,26.31
2022-08-02T10:32:29.596Z,26.45
2022-08-02T10:35:18.939Z,26.33
2022-08-02T10:37:52.383Z,26.13
2022-08-02T10:40:26.857Z,26.33
2022-08-02T10:43:00.673Z,26.22
2022-08-02T10:45:30.873Z,25.65
2022-08-02T10:48:06.160Z,25.56
2022-08-02T10:50:56.443Z,25.55
2022-08-02T10:53:26.945Z,25.62
2022-08-02T10:55:55.893Z,25.55
2022-08-02T10:58:29.336Z,25.57
2022-08-02T11:01:00.103Z,25.33
2022-08-02T11:03:42.186Z,25.36
2022-08-02T11:06:25.605Z,25.35
2022-08-02T11:09:31.981Z,25.14
2022-08-02T11:12:03.330Z,24.92
2022-08-02T11:14:32.999Z,24.81
2022-08-02T11:17:11.599Z,24.53
2022-08-02T11:20:17.949Z,24.41
2022-08-02T11:22:49.414Z,24.35
2022-08-02T11:26:02.761Z,24.29
2022-08-02T11:28:26.135Z,24.07
2022-08-02T11:31:01.501Z,23.83
2022-08-02T11:33:37.275Z,23.57
2022-08-02T11:36:07.134Z,23.28
2022-08-02T11:38:35.569Z,23.20
2022-08-02T11:41:09.994Z,23.14
2022-08-02T11:43:40.015Z,22.93
2022-08-02T11:46:15.179Z,22.93
2022-08-02T11:48:45.350Z,22.56
2022-08-02T11:51:14.604Z,22.67
2022-08-02T11:53:44.532Z,22.58
2022-08-02T11:56:12.964Z,22.46
2022-08-02T11:58:41.784Z,22.04
2022-08-02T12:01:10.277Z,22.03
2022-08-02T12:03:39.840Z,21.98
2022-08-02T12:06:16.434Z,21.90
2022-08-02T12:08:54.595Z,21.79
2022-08-02T12:11:23.134Z,21.46
2022-08-02T12:13:57.001Z,21.33
2022-08-02T12:16:43.757Z,21.19
2022-08-02T12:19:23.305Z,21.07
2022-08-02T12:22:08.462Z,21.21
2022-08-02T12:24:37.293Z,21.26
2022-08-02T12:27:05.735Z,21.32
2022-08-02T12:29:58.859Z,21.33
2022-08-02T12:32:25.975Z,21.23
2022-08-02T12:35:06.172Z,21.45
2022-08-02T12:37:36.900Z,21.65
2022-08-02T12:40:25.145Z,21.84
2022-08-02T12:42:55.661Z,21.96
2022-08-02T12:45:24.239Z,22.08
2022-08-02T12:47:54.107Z,22.11
2022-08-02T12:50:26.750Z,22.10
2022-08-02T12:53:11.275Z,22.03
2022-08-02T12:56:02.270Z,21.92
2022-08-02T12:58:32.092Z,22.13
2022-08-02T13:01:02.017Z,22.00
2022-08-02T13:04:09.316Z,21.86
2022-08-02T13:09:16.153Z,22.09
2022-08-02T13:11:44.953Z,22.06
2022-08-02T13:14:14.265Z,22.09
2022-08-02T13:16:44.579Z,22.36
2022-08-02T13:19:15.313Z,22.44
2022-08-02T13:22:01.098Z,22.21
2022-08-02T13:24:40.732Z,22.33
2022-08-02T13:27:23.163Z,22.28
2022-08-02T13:29:52.466Z,22.22
2022-08-02T13:32:21.693Z,22.27
2022-08-02T13:34:50.937Z,22.30
2022-08-02T13:37:19.580Z,22.34
2022-08-02T13:40:11.761Z,22.35
2022-08-02T13:42:37.367Z,22.50
2022-08-02T13:45:12.044Z,22.39
2022-08-02T13:48:04.321Z,22.19
2022-08-02T13:50:30.364Z,22.21
2022-08-02T13:52:58.505Z,22.06
2022-08-02T13:55:28.265Z,22.13
2022-08-02T13:57:56.468Z,22.31
2022-08-02T14:00:34.840Z,22.38
2022-08-02T14:03:07.786Z,22.51
2022-08-02T14:05:47.710Z,22.66
2022-08-02T14:08:18.284Z,22.89
2022-08-02T14:10:50.522Z,23.06
2022-08-02T14:13:19.327Z,23.17
2022-08-02T14:15:48.013Z,23.31
2022-08-02T14:18:16.956Z,23.41
2022-08-02T14:20:45.580Z,23.55
2022-08-02T14:23:13.759Z,23.54
2022-08-02T14:25:41.938Z,23.59
2022-08-02T14:28:11.577Z,23.63
2022-08-02T14:30:39.802Z,23.65
2022-08-02T14:33:08.118Z,23.54
2022-08-02T14:35:36.653Z,23.42
2022-08-02T14:38:04.808Z,23.40
2022-08-02T14:40:33.050Z,23.44
2022-08-02T14:43:01.868Z,23.52
2022-08-02T14:45:41.080Z,23.56
2022-08-02T14:48:11.648Z,23.63
2022-08-02T14:50:39.989Z,23.73
2022-08-02T14:53:12.743Z,23.80
2022-08-02T14:55:42.795Z,23.82
2022-08-02T14:58:11.196Z,23.58
2022-08-02T15:00:41.899Z,23.90
2022-08-02T15:03:13.139Z,24.09
2022-08-02T15:05:45.103Z,24.16
2022-08-02T15:08:17.069Z,24.15
2022-08-02T15:10:45.908Z,24.39
2022-08-02T15:13:14.361Z,24.52
2022-08-02T15:15:44.009Z,24.47
2022-08-02T15:18:13.524Z,24.46
2022-08-02T15:20:43.954Z,24.63
2022-08-02T15:23:34.792Z,24.86
2022-08-02T15:26:06.017Z,25.09
2022-08-02T15:28:34.304Z,25.48
2022-08-02T15:31:03.849Z,25.80
2022-08-02T15:33:32.081Z,25.82
2022-08-02T15:36:00.490Z,25.98
2022-08-02T15:38:28.615Z,26.23
2022-08-02T15:40:56.835Z,26.07
2022-08-02T15:43:25.124Z,26.04
2022-08-02T15:45:53.286Z,26.02
2022-08-02T15:48:22.800Z,25.93
2022-08-02T15:50:50.979Z,25.69
2022-08-02T15:53:19.099Z,25.53
2022-08-02T15:55:52.728Z,25.57
2022-08-02T15:58:34.787Z,25.83
2022-08-02T16:01:12.377Z,25.80
2022-08-02T16:03:41.957Z,25.71
2022-08-02T16:06:10.098Z,25.72
2022-08-02T16:08:38.311Z,26.00
2022-08-02T16:11:16.523Z,26.12
2022-08-02T16:13:53.997Z,26.21
2022-08-02T16:16:23.498Z,25.99
2022-08-02T16:18:53.320Z,25.86
2022-08-02T16:21:22.884Z,25.95
2022-08-02T16:23:58.944Z,25.75
2022-08-02T16:26:31.053Z,25.80
2022-08-02T16:28:59.827Z,25.10
2022-08-02T16:31:28.134Z,25.87
2022-08-02T16:33:57.737Z,25.62
2022-08-02T16:36:26.398Z,25.51
2022-08-02T16:38:56.192Z,25.43
2022-08-02T16:41:50.760Z,25.19
2022-08-02T16:44:15.940Z,24.93
2022-08-02T16:46:45.866Z,25.02
2022-08-02T16:50:05.935Z,24.62
2022-08-02T16:52:03.658Z,24.61
2022-08-02T16:54:31.946Z,24.66
2022-08-02T16:57:00.092Z,24.75
2022-08-02T16:59:41.968Z,24.78
2022-08-02T17:02:18.483Z,24.67
2022-08-02T17:04:49.226Z,24.34
2022-08-02T17:08:06.285Z,23.75
2022-08-02T17:10:09.542Z,23.32
2022-08-02T17:12:39.556Z,22.67
2022-08-02T17:16:08.619Z,22.21
2022-08-02T17:18:00.633Z,21.82
2022-08-02T17:20:31.994Z,21.62
2022-08-02T17:23:00.940Z,21.32
2022-08-02T17:25:30.132Z,21.03
2022-08-02T17:28:00.142Z,20.94
2022-08-02T17:30:29.399Z,20.84
2022-08-02T17:32:59.206Z,20.60
2022-08-02T17:35:43.359Z,20.34
2022-08-02T17:38:26.294Z,20.24
2022-08-02T17:40:55.841Z,20.24
2022-08-02T17:43:25.952Z,20.16
2022-08-02T17:46:01.900Z,20.13
2022-08-02T17:48:54.832Z,20.08
2022-08-02T17:52:14.723Z,20.09
2022-08-02T17:54:13.277Z,20.02
2022-08-02T17:56:42.474Z,19.96
2022-08-02T17:59:12.336Z,19.93
2022-08-02T18:01:53.161Z,19.79
2022-08-02T18:07:11.901Z,19.76
2022-08-02T18:09:48.816Z,19.49
2022-08-02T18:12:18.728Z,19.68
2022-08-02T18:14:49.312Z,19.72
2022-08-02T18:17:19.412Z,19.69
2022-08-02T18:19:54.068Z,19.78
2022-08-02T18:22:26.575Z,19.73
2022-08-02T18:24:56.558Z,19.71
2022-08-02T18:27:24.846Z,19.68
2022-08-02T18:30:04.035Z,19.55
2022-08-02T18:33:59.135Z,19.46
2022-08-02T18:35:21.359Z,19.44
2022-08-02T18:37:57.023Z,19.40
2022-08-02T18:40:30.711Z,19.37
2022-08-02T18:42:59.174Z,19.32
2022-08-02T18:45:42.041Z,19.33
2022-08-02T18:48:20.016Z,19.25
2022-08-02T18:50:50.037Z,19.22
2022-08-02T18:53:28.306Z,19.15
2022-08-02T18:56:08.143Z,19.14
2022-08-02T18:58:36.373Z,19.14
2022-08-02T19:01:05.026Z,19.12
2022-08-02T19:03:49.136Z,19.09
2022-08-02T19:06:20.277Z,19.02
2022-08-02T19:11:48.284Z,18.94
2022-08-02T19:14:27.875Z,18.99
2022-08-02T19:16:57.968Z,18.95
2022-08-02T19:19:28.677Z,18.87
2022-08-02T19:22:15.720Z,18.86
2022-08-02T19:24:45.920Z,18.71
2022-08-02T19:27:20.670Z,18.65
2022-08-02T19:29:54.391Z,18.68
2022-08-02T19:32:41.275Z,18.64
2022-08-02T19:35:19.815Z,18.74
2022-08-02T19:38:10.286Z,18.75
2022-08-02T19:40:41.860Z,18.69
2022-08-02T19:44:25.538Z,18.59
2022-08-02T19:46:01.103Z,18.49
2022-08-02T19:48:29.288Z,18.58
2022-08-02T19:53:49.400Z,18.55
2022-08-02T19:56:24.996Z,18.61
2022-08-02T19:58:57.988Z,18.53
2022-08-02T20:01:36.561Z,18.38
2022-08-02T20:04:13.587Z,18.34
2022-08-02T20:06:46.156Z,18.34
2022-08-02T20:09:21.196Z,18.33
2022-08-02T20:11:54.194Z,18.31
2022-08-02T20:14:28.028Z,18.29
2022-08-02T20:16:57.105Z,18.26
2022-08-02T20:19:28.916Z,17.99
2022-08-02T20:22:00.502Z,18.21
2022-08-02T20:24:30.484Z,18.15
2022-08-02T20:26:59.765Z,18.14
2022-08-02T20:29:44.701Z,18.09
2022-08-02T20:32:22.876Z,18.05
2022-08-02T20:34:52.407Z,18.05
2022-08-02T20:38:00.675Z,18.03
2022-08-02T20:40:16.701Z,18.00
2022-08-02T20:42:47.900Z,18.02
2022-08-02T20:45:18.323Z,17.77
2022-08-02T20:50:52.194Z,18.00
2022-08-02T20:53:23.499Z,17.97
2022-08-02T20:55:55.299Z,17.95
2022-08-02T20:58:27.337Z,17.96
2022-08-02T21:00:59.958Z,17.91
2022-08-02T21:06:17.382Z,17.73
2022-08-02T21:08:46.204Z,17.71
2022-08-02T21:11:20.828Z,17.68
2022-08-02T21:14:07.528Z,17.67
2022-08-02T21:16:38.551Z,17.61
2022-08-02T21:19:07.886Z,17.64
2022-08-02T21:21:37.952Z,17.65
2022-08-02T21:24:06.687Z,17.68
2022-08-02T21:26:39.471Z,17.67
2022-08-02T21:29:09.251Z,17.35
2022-08-02T21:31:38.754Z,17.49
2022-08-02T21:34:26.668Z,17.29
2022-08-02T21:36:55.436Z,17.44
2022-08-02T21:39:23.694Z,17.38
2022-08-02T21:41:51.934Z,17.30
2022-08-02T21:44:22.111Z,17.30
2022-08-02T21:46:54.240Z,17.26
2022-08-02T21:49:40.785Z,17.30
2022-08-02T21:52:11.810Z,17.33
2022-08-02T21:54:40.846Z,17.34
2022-08-02T21:57:16.279Z,17.34
2022-08-02T21:59:45.749Z,17.36
2022-08-02T22:02:15.950Z,17.32
2022-08-02T22:04:47.650Z,17.29
2022-08-02T22:07:17.675Z,17.27
2022-08-02T22:09:52.760Z,17.19
2022-08-02T22:12:25.885Z,17.10
2022-08-02T22:14:55.715Z,17.07
2022-08-02T22:17:46.829Z,17.02
2022-08-02T22:20:19.665Z,17.02
2022-08-02T22:22:50.518Z,17.05
2022-08-02T22:25:31.011Z,17.07
2022-08-02T22:28:35.361Z,16.99
2022-08-02T22:30:57.326Z,16.96
2022-08-02T22:33:47.265Z,16.92
2022-08-02T22:36:29.140Z,16.90
2022-08-02T22:38:57.355Z,16.94
2022-08-02T22:41:25.636Z,16.66
2022-08-02T22:44:14.605Z,16.89
2022-08-02T22:46:43.153Z,16.94
2022-08-02T22:49:37.166Z,16.92
2022-08-02T22:52:00.699Z,16.91
2022-08-02T22:54:30.419Z,16.93
2022-08-02T22:57:00.145Z,16.93
2022-08-02T22:58:53.396Z,18.58
2022-08-02T22:58:58.464Z,18.73
2022-08-02T22:58:58.993Z,19.72
2022-08-02T22:59:05.292Z,17.62
2022-08-02T22:59:05.338Z,18.00
2022-08-02T22:59:39.920Z,16.90
2022-08-02T23:02:08.759Z,16.90
2022-08-02T23:04:38.355Z,16.89
2022-08-02T23:07:06.769Z,16.88
2022-08-02T23:09:34.941Z,16.84
2022-08-02T23:12:03.259Z,16.90
2022-08-02T23:14:31.402Z,16.88
2022-08-02T23:17:17.006Z,16.86
2022-08-02T23:19:52.311Z,16.90
2022-08-02T23:22:20.807Z,16.88
2022-08-02T23:24:49.062Z,16.83
2022-08-02T23:27:17.742Z,16.85
2022-08-02T23:29:46.305Z,16.79
2022-08-02T23:32:14.927Z,16.71
2022-08-02T23:34:43.578Z,16.61
2022-08-02T23:37:13.110Z,16.51
2022-08-02T23:39:41.271Z,16.44
2022-08-02T23:42:09.561Z,16.43
2022-08-02T23:44:37.760Z,16.41
2022-08-02T23:47:06.025Z,16.44
2022-08-02T23:49:34.225Z,16.48
2022-08-02T23:52:02.490Z,16.47
2022-08-02T23:54:32.035Z,16.45
2022-08-02T23:57:00.379Z,16.23
2022-08-02T23:59:48.458Z,16.39
